sensor_id;sensor_type;location;lat;lon;timestamp;pressure;altitude;pressure_sealevel;temperature;humidity
81937;BME280;71432;56.558;9.036;2023-12-20T00:00:40;100128.78;;;21.65;49.85
81937;BME280;71432;56.558;9.036;2023-12-20T00:03:05;100128.63;;;21.66;49.74
81937;BME280;71432;56.558;9.036;2023-12-20T00:05:30;100106.72;;;21.58;49.73
81937;BME280;71432;56.558;9.036;2023-12-20T00:08:00;100130.25;;;21.67;49.85
81937;BME280;71432;56.558;9.036;2023-12-20T00:10:25;100127.47;;;21.61;49.94
81937;BME280;71432;56.558;9.036;2023-12-20T00:12:51;100131.75;;;21.62;50.06
81937;BME280;71432;56.558;9.036;2023-12-20T00:15:16;100135.03;;;21.64;49.67
81937;BME280;71432;56.558;9.036;2023-12-20T00:17:41;100137.03;;;21.62;50.03
81937;BME280;71432;56.558;9.036;2023-12-20T00:20:07;100125.31;;;21.64;49.88
81937;BME280;71432;56.558;9.036;2023-12-20T00:22:32;100105.41;;;21.62;49.75
81937;BME280;71432;56.558;9.036;2023-12-20T00:24:57;100083.84;;;21.58;50.13
81937;BME280;71432;56.558;9.036;2023-12-20T00:27:23;100070.03;;;21.56;50.04
81937;BME280;71432;56.558;9.036;2023-12-20T00:29:49;100063.94;;;21.56;49.80
81937;BME280;71432;56.558;9.036;2023-12-20T00:32:15;100029.88;;;21.38;49.83
81937;BME280;71432;56.558;9.036;2023-12-20T00:34:41;100044.00;;;21.53;49.68
81937;BME280;71432;56.558;9.036;2023-12-20T00:37:06;100050.44;;;21.51;49.95
81937;BME280;71432;56.558;9.036;2023-12-20T00:39:32;100048.59;;;21.59;49.83
81937;BME280;71432;56.558;9.036;2023-12-20T00:41:58;100044.19;;;21.52;50.13
81937;BME280;71432;56.558;9.036;2023-12-20T00:44:23;100043.69;;;21.56;50.06
81937;BME280;71432;56.558;9.036;2023-12-20T00:46:48;100038.91;;;21.52;49.64
81937;BME280;71432;56.558;9.036;2023-12-20T00:49:14;100044.81;;;21.54;49.99
81937;BME280;71432;56.558;9.036;2023-12-20T00:51:39;100065.06;;;21.53;49.88
81937;BME280;71432;56.558;9.036;2023-12-20T00:54:05;100062.28;;;21.55;49.98
81937;BME280;71432;56.558;9.036;2023-12-20T00:56:30;100052.91;;;21.52;50.23
81937;BME280;71432;56.558;9.036;2023-12-20T00:58:55;100053.06;;;21.51;49.96
81937;BME280;71432;56.558;9.036;2023-12-20T01:01:21;100022.97;;;21.45;50.04
81937;BME280;71432;56.558;9.036;2023-12-20T01:03:47;100007.34;;;21.44;49.83
81937;BME280;71432;56.558;9.036;2023-12-20T01:06:13;100017.19;;;21.50;49.47
81937;BME280;71432;56.558;9.036;2023-12-20T01:08:38;100005.69;;;21.43;49.92
81937;BME280;71432;56.558;9.036;2023-12-20T01:11:04;100020.50;;;21.52;49.74
81937;BME280;71432;56.558;9.036;2023-12-20T01:13:31;100007.47;;;21.50;49.91
81937;BME280;71432;56.558;9.036;2023-12-20T01:15:56;99997.78;;;21.51;49.70
81937;BME280;71432;56.558;9.036;2023-12-20T01:18:21;100004.84;;;21.50;49.70
81937;BME280;71432;56.558;9.036;2023-12-20T01:20:47;99994.31;;;21.50;49.48
81937;BME280;71432;56.558;9.036;2023-12-20T01:23:12;99994.00;;;21.45;49.85
81937;BME280;71432;56.558;9.036;2023-12-20T01:25:37;99990.72;;;21.43;50.07
81937;BME280;71432;56.558;9.036;2023-12-20T01:28:03;99998.94;;;21.48;49.75
81937;BME280;71432;56.558;9.036;2023-12-20T01:30:28;99988.41;;;21.48;49.96
81937;BME280;71432;56.558;9.036;2023-12-20T01:32:53;99994.66;;;21.47;49.75
81937;BME280;71432;56.558;9.036;2023-12-20T01:35:19;99985.13;;;21.38;49.98
81937;BME280;71432;56.558;9.036;2023-12-20T01:37:45;99986.28;;;21.44;49.95
81937;BME280;71432;56.558;9.036;2023-12-20T01:40:10;99980.34;;;21.42;50.03
81937;BME280;71432;56.558;9.036;2023-12-20T01:42:35;99984.63;;;21.43;50.05
81937;BME280;71432;56.558;9.036;2023-12-20T01:45:01;99967.19;;;21.42;50.23
81937;BME280;71432;56.558;9.036;2023-12-20T01:47:27;99963.56;;;21.43;50.06
81937;BME280;71432;56.558;9.036;2023-12-20T01:49:53;99950.72;;;21.40;49.90
81937;BME280;71432;56.558;9.036;2023-12-20T01:52:19;99947.44;;;21.38;49.75
81937;BME280;71432;56.558;9.036;2023-12-20T01:54:46;99935.41;;;21.35;49.86
81937;BME280;71432;56.558;9.036;2023-12-20T01:57:12;99949.09;;;21.39;49.92
81937;BME280;71432;56.558;9.036;2023-12-20T01:59:39;99919.50;;;21.28;49.75
81937;BME280;71432;56.558;9.036;2023-12-20T02:02:05;99930.00;;;21.37;50.03
81937;BME280;71432;56.558;9.036;2023-12-20T02:04:30;99925.06;;;21.34;49.92
81937;BME280;71432;56.558;9.036;2023-12-20T02:06:57;99915.69;;;21.31;50.15
81937;BME280;71432;56.558;9.036;2023-12-20T02:09:24;99915.53;;;21.33;50.04
81937;BME280;71432;56.558;9.036;2023-12-20T02:11:49;99918.63;;;21.36;49.80
81937;BME280;71432;56.558;9.036;2023-12-20T02:14:15;99914.19;;;21.37;49.89
81937;BME280;71432;56.558;9.036;2023-12-20T02:16:40;99918.47;;;21.38;49.80
81937;BME280;71432;56.558;9.036;2023-12-20T02:19:13;99912.56;;;21.27;49.80
81937;BME280;71432;56.558;9.036;2023-12-20T02:21:38;99936.25;;;21.36;49.82
81937;BME280;71432;56.558;9.036;2023-12-20T02:24:04;99940.69;;;21.35;49.77
81937;BME280;71432;56.558;9.036;2023-12-20T02:26:29;99934.44;;;21.36;49.50
81937;BME280;71432;56.558;9.036;2023-12-20T02:28:55;99915.06;;;21.29;49.71
81937;BME280;71432;56.558;9.036;2023-12-20T02:31:21;99922.59;;;21.32;49.71
81937;BME280;71432;56.558;9.036;2023-12-20T02:33:47;99911.72;;;21.35;50.00
81937;BME280;71432;56.558;9.036;2023-12-20T02:36:12;99914.88;;;21.39;49.71
81937;BME280;71432;56.558;9.036;2023-12-20T02:38:38;99919.31;;;21.38;49.50
81937;BME280;71432;56.558;9.036;2023-12-20T02:41:03;99898.56;;;21.35;49.79
81937;BME280;71432;56.558;9.036;2023-12-20T02:43:28;99899.06;;;21.39;49.40
81937;BME280;71432;56.558;9.036;2023-12-20T02:45:54;99901.69;;;21.39;49.26
81937;BME280;71432;56.558;9.036;2023-12-20T02:48:19;99889.53;;;21.38;49.56
81937;BME280;71432;56.558;9.036;2023-12-20T02:50:46;99878.50;;;21.34;49.54
81937;BME280;71432;56.558;9.036;2023-12-20T02:53:13;99873.41;;;21.33;49.40
81937;BME280;71432;56.558;9.036;2023-12-20T02:55:38;99874.72;;;21.37;49.43
81937;BME280;71432;56.558;9.036;2023-12-20T02:58:03;99871.09;;;21.38;49.54
81937;BME280;71432;56.558;9.036;2023-12-20T03:00:29;99870.09;;;21.30;49.54
81937;BME280;71432;56.558;9.036;2023-12-20T03:02:54;99872.91;;;21.37;49.52
81937;BME280;71432;56.558;9.036;2023-12-20T03:05:19;99884.59;;;21.35;49.38
81937;BME280;71432;56.558;9.036;2023-12-20T03:07:45;99878.31;;;21.36;49.57
81937;BME280;71432;56.558;9.036;2023-12-20T03:10:11;99879.50;;;21.33;49.60
81937;BME280;71432;56.558;9.036;2023-12-20T03:12:36;99870.94;;;21.31;49.73
81937;BME280;71432;56.558;9.036;2023-12-20T03:15:02;99868.16;;;21.33;49.58
81937;BME280;71432;56.558;9.036;2023-12-20T03:17:27;99858.94;;;21.28;49.77
81937;BME280;71432;56.558;9.036;2023-12-20T03:19:52;99845.47;;;21.23;49.72
81937;BME280;71432;56.558;9.036;2023-12-20T03:22:18;99848.88;;;21.32;49.75
81937;BME280;71432;56.558;9.036;2023-12-20T03:24:43;99851.53;;;21.32;49.56
81937;BME280;71432;56.558;9.036;2023-12-20T03:27:08;99858.78;;;21.30;49.46
81937;BME280;71432;56.558;9.036;2023-12-20T03:29:34;99881.16;;;21.26;49.48
81937;BME280;71432;56.558;9.036;2023-12-20T03:31:59;99899.94;;;21.23;49.69
81937;BME280;71432;56.558;9.036;2023-12-20T03:34:24;99913.06;;;21.31;49.76
81937;BME280;71432;56.558;9.036;2023-12-20T03:36:50;99920.31;;;21.29;49.59
81937;BME280;71432;56.558;9.036;2023-12-20T03:39:15;99920.31;;;21.29;49.49
81937;BME280;71432;56.558;9.036;2023-12-20T03:41:40;99897.63;;;21.20;49.50
81937;BME280;71432;56.558;9.036;2023-12-20T03:44:06;99906.50;;;21.27;49.64
81937;BME280;71432;56.558;9.036;2023-12-20T03:46:31;99900.09;;;21.21;49.75
81937;BME280;71432;56.558;9.036;2023-12-20T03:48:56;99896.78;;;21.27;49.73
81937;BME280;71432;56.558;9.036;2023-12-20T03:51:22;99878.88;;;21.23;49.77
81937;BME280;71432;56.558;9.036;2023-12-20T03:53:47;99867.34;;;21.24;49.64
81937;BME280;71432;56.558;9.036;2023-12-20T03:56:13;99865.88;;;21.21;50.11
81937;BME280;71432;56.558;9.036;2023-12-20T03:58:38;99855.84;;;21.25;49.97
81937;BME280;71432;56.558;9.036;2023-12-20T04:01:03;99856.16;;;21.22;49.69
81937;BME280;71432;56.558;9.036;2023-12-20T04:03:33;99841.88;;;21.16;49.78
81937;BME280;71432;56.558;9.036;2023-12-20T04:05:59;99845.81;;;21.20;49.87
81937;BME280;71432;56.558;9.036;2023-12-20T04:08:24;99835.44;;;21.19;49.66
81937;BME280;71432;56.558;9.036;2023-12-20T04:10:49;99829.38;;;21.18;49.95
81937;BME280;71432;56.558;9.036;2023-12-20T04:13:15;99836.13;;;21.21;49.83
81937;BME280;71432;56.558;9.036;2023-12-20T04:15:40;99814.22;;;21.12;49.80
81937;BME280;71432;56.558;9.036;2023-12-20T04:18:05;99811.91;;;21.17;49.63
81937;BME280;71432;56.558;9.036;2023-12-20T04:20:31;99793.84;;;21.14;49.40
81937;BME280;71432;56.558;9.036;2023-12-20T04:22:56;99809.78;;;21.21;49.56
81937;BME280;71432;56.558;9.036;2023-12-20T04:25:22;99813.22;;;21.21;49.68
81937;BME280;71432;56.558;9.036;2023-12-20T04:27:47;99809.28;;;21.25;49.44
81937;BME280;71432;56.558;9.036;2023-12-20T04:30:13;99811.72;;;21.27;49.50
81937;BME280;71432;56.558;9.036;2023-12-20T04:32:38;99795.97;;;21.19;49.75
81937;BME280;71432;56.558;9.036;2023-12-20T04:35:04;99795.09;;;21.26;49.56
81937;BME280;71432;56.558;9.036;2023-12-20T04:37:29;99800.56;;;21.25;49.53
81937;BME280;71432;56.558;9.036;2023-12-20T04:39:55;99795.94;;;21.27;49.51
81937;BME280;71432;56.558;9.036;2023-12-20T04:42:20;99780.19;;;21.19;49.71
81937;BME280;71432;56.558;9.036;2023-12-20T04:44:45;99775.38;;;21.22;49.71
81937;BME280;71432;56.558;9.036;2023-12-20T04:47:11;99782.75;;;21.27;49.72
81937;BME280;71432;56.558;9.036;2023-12-20T04:49:36;99773.22;;;21.26;49.53
81937;BME280;71432;56.558;9.036;2023-12-20T04:52:02;99773.41;;;21.24;49.99
81937;BME280;71432;56.558;9.036;2023-12-20T04:54:27;99768.16;;;21.24;49.64
81937;BME280;71432;56.558;9.036;2023-12-20T04:56:52;99763.88;;;21.23;49.65
81937;BME280;71432;56.558;9.036;2023-12-20T04:59:18;99753.50;;;21.22;49.88
81937;BME280;71432;56.558;9.036;2023-12-20T05:01:43;99756.13;;;21.22;49.73
81937;BME280;71432;56.558;9.036;2023-12-20T05:04:09;99756.03;;;21.15;49.80
81937;BME280;71432;56.558;9.036;2023-12-20T05:06:34;99752.88;;;21.20;49.66
81937;BME280;71432;56.558;9.036;2023-12-20T05:08:59;99736.63;;;21.16;49.64
81937;BME280;71432;56.558;9.036;2023-12-20T05:11:25;99727.06;;;21.15;49.78
81937;BME280;71432;56.558;9.036;2023-12-20T05:13:50;99729.81;;;21.22;49.94
81937;BME280;71432;56.558;9.036;2023-12-20T05:16:15;99728.19;;;21.21;49.82
81937;BME280;71432;56.558;9.036;2023-12-20T05:18:43;99733.63;;;21.19;50.04
81937;BME280;71432;56.558;9.036;2023-12-20T05:21:08;99723.44;;;21.16;49.87
81937;BME280;71432;56.558;9.036;2023-12-20T05:23:34;99723.56;;;21.23;49.90
81937;BME280;71432;56.558;9.036;2023-12-20T05:25:59;99716.84;;;21.20;49.87
81937;BME280;71432;56.558;9.036;2023-12-20T05:28:25;99713.38;;;21.20;49.53
81937;BME280;71432;56.558;9.036;2023-12-20T05:30:51;99716.72;;;21.14;49.78
81937;BME280;71432;56.558;9.036;2023-12-20T05:33:16;99713.72;;;21.17;49.80
81937;BME280;71432;56.558;9.036;2023-12-20T05:35:41;99706.47;;;21.19;49.78
81937;BME280;71432;56.558;9.036;2023-12-20T05:38:07;99711.09;;;21.17;49.74
81937;BME280;71432;56.558;9.036;2023-12-20T05:40:32;99714.22;;;21.20;49.75
81937;BME280;71432;56.558;9.036;2023-12-20T05:42:57;99706.31;;;21.20;49.64
81937;BME280;71432;56.558;9.036;2023-12-20T05:45:23;99702.03;;;21.19;49.58
81937;BME280;71432;56.558;9.036;2023-12-20T05:47:48;99702.66;;;21.21;49.75
81937;BME280;71432;56.558;9.036;2023-12-20T05:50:13;99701.53;;;21.24;49.65
81937;BME280;71432;56.558;9.036;2023-12-20T05:52:39;99688.00;;;21.27;49.76
81937;BME280;71432;56.558;9.036;2023-12-20T05:55:04;99693.09;;;21.28;49.77
81937;BME280;71432;56.558;9.036;2023-12-20T05:57:29;99694.38;;;21.33;50.23
81937;BME280;71432;56.558;9.036;2023-12-20T05:59:55;99693.25;;;21.27;50.67
81937;BME280;71432;56.558;9.036;2023-12-20T06:02:20;99688.81;;;21.27;50.67
81937;BME280;71432;56.558;9.036;2023-12-20T06:04:45;99691.91;;;21.31;50.51
81937;BME280;71432;56.558;9.036;2023-12-20T06:07:12;99691.41;;;21.36;50.37
81937;BME280;71432;56.558;9.036;2023-12-20T06:09:38;99678.13;;;21.29;50.89
81937;BME280;71432;56.558;9.036;2023-12-20T06:12:03;99680.25;;;21.34;50.79
81937;BME280;71432;56.558;9.036;2023-12-20T06:14:29;99674.84;;;21.27;50.75
81937;BME280;71432;56.558;9.036;2023-12-20T06:16:56;99671.69;;;21.32;50.88
81937;BME280;71432;56.558;9.036;2023-12-20T06:19:21;99677.94;;;21.30;51.10
81937;BME280;71432;56.558;9.036;2023-12-20T06:21:47;99664.16;;;21.28;50.89
81937;BME280;71432;56.558;9.036;2023-12-20T06:24:12;99659.81;;;21.36;50.96
81937;BME280;71432;56.558;9.036;2023-12-20T06:26:37;99648.81;;;21.32;51.07
81937;BME280;71432;56.558;9.036;2023-12-20T06:29:03;99654.25;;;21.30;50.89
81937;BME280;71432;56.558;9.036;2023-12-20T06:31:28;99645.44;;;21.23;50.34
81937;BME280;71432;56.558;9.036;2023-12-20T06:33:54;99663.16;;;21.29;49.63
81937;BME280;71432;56.558;9.036;2023-12-20T06:36:23;99649.88;;;21.23;50.13
81937;BME280;71432;56.558;9.036;2023-12-20T06:38:48;99643.44;;;21.25;50.35
81937;BME280;71432;56.558;9.036;2023-12-20T06:41:13;99666.94;;;21.27;50.79
81937;BME280;71432;56.558;9.036;2023-12-20T06:43:39;99663.84;;;21.23;50.28
81937;BME280;71432;56.558;9.036;2023-12-20T06:46:05;99683.25;;;21.22;50.27
81937;BME280;71432;56.558;9.036;2023-12-20T06:48:31;99674.91;;;21.19;50.39
81937;BME280;71432;56.558;9.036;2023-12-20T06:50:56;99675.88;;;21.18;50.18
81937;BME280;71432;56.558;9.036;2023-12-20T06:53:22;99670.63;;;21.18;49.98
81937;BME280;71432;56.558;9.036;2023-12-20T06:55:47;99653.31;;;21.23;50.04
81937;BME280;71432;56.558;9.036;2023-12-20T06:58:12;99651.22;;;21.19;50.22
81937;BME280;71432;56.558;9.036;2023-12-20T07:00:38;99653.47;;;21.22;50.00
81937;BME280;71432;56.558;9.036;2023-12-20T07:03:03;99649.56;;;21.18;49.88
81937;BME280;71432;56.558;9.036;2023-12-20T07:05:28;99649.69;;;21.24;49.75
81937;BME280;71432;56.558;9.036;2023-12-20T07:07:54;99627.88;;;21.08;49.71
81937;BME280;71432;56.558;9.036;2023-12-20T07:10:19;99659.75;;;21.21;49.79
81937;BME280;71432;56.558;9.036;2023-12-20T07:12:45;99659.09;;;21.19;49.71
81937;BME280;71432;56.558;9.036;2023-12-20T07:15:10;99663.03;;;21.23;49.56
81937;BME280;71432;56.558;9.036;2023-12-20T07:17:36;99660.03;;;21.26;49.69
81937;BME280;71432;56.558;9.036;2023-12-20T07:20:01;99656.59;;;21.25;49.68
81937;BME280;71432;56.558;9.036;2023-12-20T07:22:29;99672.56;;;21.24;49.58
81937;BME280;71432;56.558;9.036;2023-12-20T07:24:57;99674.38;;;21.23;49.91
81937;BME280;71432;56.558;9.036;2023-12-20T07:27:22;99674.53;;;21.22;49.82
81937;BME280;71432;56.558;9.036;2023-12-20T07:29:47;99666.00;;;21.20;49.86
81937;BME280;71432;56.558;9.036;2023-12-20T07:32:13;99684.91;;;21.23;49.70
81937;BME280;71432;56.558;9.036;2023-12-20T07:34:38;99675.88;;;21.18;50.19
81937;BME280;71432;56.558;9.036;2023-12-20T07:37:03;99687.38;;;21.25;50.21
81937;BME280;71432;56.558;9.036;2023-12-20T07:39:29;99689.34;;;21.23;50.14
81937;BME280;71432;56.558;9.036;2023-12-20T07:41:54;99687.22;;;21.18;49.97
81937;BME280;71432;56.558;9.036;2023-12-20T07:44:19;99690.53;;;21.20;49.76
81937;BME280;71432;56.558;9.036;2023-12-20T07:46:45;99687.69;;;21.22;49.88
81937;BME280;71432;56.558;9.036;2023-12-20T07:49:10;99680.16;;;21.19;49.88
81937;BME280;71432;56.558;9.036;2023-12-20T07:51:36;99688.22;;;21.17;49.74
81937;BME280;71432;56.558;9.036;2023-12-20T07:54:01;99697.75;;;21.18;49.85
81937;BME280;71432;56.558;9.036;2023-12-20T07:56:28;99707.00;;;21.14;49.86
81937;BME280;71432;56.558;9.036;2023-12-20T07:58:53;99688.56;;;21.14;49.80
81937;BME280;71432;56.558;9.036;2023-12-20T08:01:19;99677.34;;;21.12;49.75
81937;BME280;71432;56.558;9.036;2023-12-20T08:03:45;99682.63;;;21.12;49.86
81937;BME280;71432;56.558;9.036;2023-12-20T08:06:11;99692.03;;;21.15;50.00
81937;BME280;71432;56.558;9.036;2023-12-20T08:08:36;99678.69;;;21.08;50.03
81937;BME280;71432;56.558;9.036;2023-12-20T08:11:02;99676.56;;;21.12;49.94
81937;BME280;71432;56.558;9.036;2023-12-20T08:13:28;99671.47;;;21.10;49.70
81937;BME280;71432;56.558;9.036;2023-12-20T08:15:53;99677.56;;;21.11;50.25
81937;BME280;71432;56.558;9.036;2023-12-20T08:18:19;99673.94;;;21.12;49.62
81937;BME280;71432;56.558;9.036;2023-12-20T08:20:44;99661.00;;;21.02;49.67
81937;BME280;71432;56.558;9.036;2023-12-20T08:23:10;99679.19;;;21.12;49.81
81937;BME280;71432;56.558;9.036;2023-12-20T08:25:35;99685.13;;;21.14;49.57
81937;BME280;71432;56.558;9.036;2023-12-20T08:28:02;99680.88;;;21.05;49.93
81937;BME280;71432;56.558;9.036;2023-12-20T08:30:28;99687.88;;;21.12;49.54
81937;BME280;71432;56.558;9.036;2023-12-20T08:32:53;99686.09;;;21.13;50.03
81937;BME280;71432;56.558;9.036;2023-12-20T08:35:18;99685.25;;;21.12;49.74
81937;BME280;71432;56.558;9.036;2023-12-20T08:37:44;99692.03;;;21.15;49.58
81937;BME280;71432;56.558;9.036;2023-12-20T08:40:10;99690.84;;;21.17;49.35
81937;BME280;71432;56.558;9.036;2023-12-20T08:42:35;99694.50;;;21.16;49.69
81937;BME280;71432;56.558;9.036;2023-12-20T08:45:01;99674.78;;;21.04;49.42
81937;BME280;71432;56.558;9.036;2023-12-20T08:47:26;99689.25;;;21.16;49.46
81937;BME280;71432;56.558;9.036;2023-12-20T08:49:52;99671.16;;;21.05;49.54
81937;BME280;71432;56.558;9.036;2023-12-20T08:52:24;99678.06;;;21.14;49.60
81937;BME280;71432;56.558;9.036;2023-12-20T08:54:50;99680.97;;;21.19;49.17
81937;BME280;71432;56.558;9.036;2023-12-20T08:57:21;99679.50;;;21.17;49.78
81937;BME280;71432;56.558;9.036;2023-12-20T08:59:49;99692.13;;;21.21;49.34
81937;BME280;71432;56.558;9.036;2023-12-20T09:02:14;99684.97;;;21.15;49.37
81937;BME280;71432;56.558;9.036;2023-12-20T09:04:40;99704.16;;;21.24;49.45
81937;BME280;71432;56.558;9.036;2023-12-20T09:07:05;99700.22;;;21.20;49.59
81937;BME280;71432;56.558;9.036;2023-12-20T09:09:32;99706.78;;;21.24;49.34
81937;BME280;71432;56.558;9.036;2023-12-20T09:11:58;99716.13;;;21.26;49.38
81937;BME280;71432;56.558;9.036;2023-12-20T09:14:24;99709.41;;;21.24;49.59
81937;BME280;71432;56.558;9.036;2023-12-20T09:16:49;99714.69;;;21.24;49.56
81937;BME280;71432;56.558;9.036;2023-12-20T09:19:19;99713.19;;;21.21;49.68
81937;BME280;71432;56.558;9.036;2023-12-20T09:21:44;99718.47;;;21.21;49.40
81937;BME280;71432;56.558;9.036;2023-12-20T09:24:10;99722.56;;;21.24;49.54
81937;BME280;71432;56.558;9.036;2023-12-20T09:26:35;99725.56;;;21.21;49.54
81937;BME280;71432;56.558;9.036;2023-12-20T09:29:00;99727.19;;;21.22;49.78
81937;BME280;71432;56.558;9.036;2023-12-20T09:31:26;99731.81;;;21.20;49.58
81937;BME280;71432;56.558;9.036;2023-12-20T09:33:52;99729.69;;;21.15;49.49
81937;BME280;71432;56.558;9.036;2023-12-20T09:36:17;99730.34;;;21.17;49.62
81937;BME280;71432;56.558;9.036;2023-12-20T09:38:42;99724.91;;;21.19;49.76
81937;BME280;71432;56.558;9.036;2023-12-20T09:41:08;99714.91;;;21.14;49.82
81937;BME280;71432;56.558;9.036;2023-12-20T09:43:37;99713.72;;;21.09;49.61
81937;BME280;71432;56.558;9.036;2023-12-20T09:46:06;99741.69;;;21.18;49.90
81937;BME280;71432;56.558;9.036;2023-12-20T09:48:36;99744.31;;;21.18;49.98
81937;BME280;71432;56.558;9.036;2023-12-20T09:51:01;99745.31;;;21.17;49.77
81937;BME280;71432;56.558;9.036;2023-12-20T09:53:28;99722.63;;;21.08;49.73
81937;BME280;71432;56.558;9.036;2023-12-20T09:55:57;99738.91;;;21.11;49.96
81937;BME280;71432;56.558;9.036;2023-12-20T09:58:24;99743.50;;;21.17;50.08
81937;BME280;71432;56.558;9.036;2023-12-20T10:00:50;99745.31;;;21.17;49.86
81937;BME280;71432;56.558;9.036;2023-12-20T10:03:16;99737.41;;;21.17;50.11
81937;BME280;71432;56.558;9.036;2023-12-20T10:05:44;99739.53;;;21.21;49.71
81937;BME280;71432;56.558;9.036;2023-12-20T10:08:09;99733.28;;;21.22;49.91
81937;BME280;71432;56.558;9.036;2023-12-20T10:10:35;99723.91;;;21.20;49.79
81937;BME280;71432;56.558;9.036;2023-12-20T10:13:07;99729.97;;;21.28;49.72
81937;BME280;71432;56.558;9.036;2023-12-20T10:15:34;99735.06;;;21.30;49.38
81937;BME280;71432;56.558;9.036;2023-12-20T10:18:01;99730.41;;;21.32;49.50
81937;BME280;71432;56.558;9.036;2023-12-20T10:20:27;99721.53;;;21.33;49.81
81937;BME280;71432;56.558;9.036;2023-12-20T10:22:55;99711.38;;;21.30;49.53
81937;BME280;71432;56.558;9.036;2023-12-20T10:25:21;99721.19;;;21.36;49.38
81937;BME280;71432;56.558;9.036;2023-12-20T10:27:46;99726.44;;;21.36;49.38
81937;BME280;71432;56.558;9.036;2023-12-20T10:30:13;99726.44;;;21.36;49.36
81937;BME280;71432;56.558;9.036;2023-12-20T10:32:39;99728.09;;;21.37;49.54
81937;BME280;71432;56.558;9.036;2023-12-20T10:35:05;99714.75;;;21.39;49.58
81937;BME280;71432;56.558;9.036;2023-12-20T10:37:31;99719.38;;;21.37;49.39
81937;BME280;71432;56.558;9.036;2023-12-20T10:39:57;99712.97;;;21.39;49.52
81937;BME280;71432;56.558;9.036;2023-12-20T10:42:26;99725.94;;;21.41;49.59
81937;BME280;71432;56.558;9.036;2023-12-20T10:44:52;99739.44;;;21.38;49.66
81937;BME280;71432;56.558;9.036;2023-12-20T10:47:19;99711.38;;;21.30;49.54
81937;BME280;71432;56.558;9.036;2023-12-20T10:49:45;99706.72;;;21.32;49.89
81937;BME280;71432;56.558;9.036;2023-12-20T10:52:12;99707.16;;;21.21;49.81
81937;BME280;71432;56.558;9.036;2023-12-20T10:54:39;99714.16;;;21.28;49.89
81937;BME280;71432;56.558;9.036;2023-12-20T10:57:05;99725.50;;;21.29;50.05
81937;BME280;71432;56.558;9.036;2023-12-20T10:59:33;99726.66;;;21.26;50.07
81937;BME280;71432;56.558;9.036;2023-12-20T11:02:02;99724.84;;;21.27;50.14
81937;BME280;71432;56.558;9.036;2023-12-20T11:04:44;99712.94;;;21.16;50.13
81937;BME280;71432;56.558;9.036;2023-12-20T11:07:42;99727.69;;;21.25;49.80
81937;BME280;71432;56.558;9.036;2023-12-20T11:10:21;99741.00;;;21.24;50.08
81937;BME280;71432;56.558;9.036;2023-12-20T11:12:57;99736.09;;;21.21;49.88
81937;BME280;71432;56.558;9.036;2023-12-20T11:15:26;99750.03;;;21.21;50.29
81937;BME280;71432;56.558;9.036;2023-12-20T11:17:56;99716.19;;;21.18;50.25
81937;BME280;71432;56.558;9.036;2023-12-20T11:20:36;99714.22;;;21.20;50.17
81937;BME280;71432;56.558;9.036;2023-12-20T11:23:02;99705.66;;;21.18;50.09
81937;BME280;71432;56.558;9.036;2023-12-20T11:25:28;99721.75;;;21.23;49.83
81937;BME280;71432;56.558;9.036;2023-12-20T11:28:10;99730.13;;;21.27;49.90
81937;BME280;71432;56.558;9.036;2023-12-20T11:30:46;99720.78;;;21.24;49.87
81937;BME280;71432;56.558;9.036;2023-12-20T11:33:13;99718.75;;;21.26;49.79
81937;BME280;71432;56.558;9.036;2023-12-20T11:35:39;99706.44;;;21.27;49.86
81937;BME280;71432;56.558;9.036;2023-12-20T11:38:07;99702.50;;;21.23;49.83
81937;BME280;71432;56.558;9.036;2023-12-20T11:40:33;99711.69;;;21.27;49.80
81937;BME280;71432;56.558;9.036;2023-12-20T11:42:59;99692.34;;;21.20;50.04
81937;BME280;71432;56.558;9.036;2023-12-20T11:45:25;99708.44;;;21.25;50.03
81937;BME280;71432;56.558;9.036;2023-12-20T11:47:51;99695.59;;;21.22;49.95
81937;BME280;71432;56.558;9.036;2023-12-20T11:50:18;99692.63;;;21.25;50.08
81937;BME280;71432;56.558;9.036;2023-12-20T11:52:44;99685.88;;;21.22;49.82
81937;BME280;71432;56.558;9.036;2023-12-20T11:55:09;99692.63;;;21.25;49.98
81937;BME280;71432;56.558;9.036;2023-12-20T11:57:35;99692.63;;;21.25;50.03
81937;BME280;71432;56.558;9.036;2023-12-20T12:00:02;99682.94;;;21.25;50.11
81937;BME280;71432;56.558;9.036;2023-12-20T12:02:28;99695.06;;;21.26;49.82
81937;BME280;71432;56.558;9.036;2023-12-20T12:04:53;99692.81;;;21.23;49.73
81937;BME280;71432;56.558;9.036;2023-12-20T12:07:18;99690.63;;;21.27;49.85
81937;BME280;71432;56.558;9.036;2023-12-20T12:09:44;99685.06;;;21.22;48.72
81937;BME280;71432;56.558;9.036;2023-12-20T12:12:11;99681.59;;;20.91;43.72
81937;BME280;71432;56.558;9.036;2023-12-20T12:14:37;99687.09;;;20.73;41.94
81937;BME280;71432;56.558;9.036;2023-12-20T12:17:03;99686.44;;;20.79;44.96
81937;BME280;71432;56.558;9.036;2023-12-20T12:19:29;99697.34;;;20.99;45.05
81937;BME280;71432;56.558;9.036;2023-12-20T12:22:23;99702.28;;;21.02;45.79
81937;BME280;71432;56.558;9.036;2023-12-20T12:24:52;99696.66;;;21.05;45.80
81937;BME280;71432;56.558;9.036;2023-12-20T12:27:17;99687.13;;;21.04;46.16
81937;BME280;71432;56.558;9.036;2023-12-20T12:30:00;99696.97;;;21.10;46.46
81937;BME280;71432;56.558;9.036;2023-12-20T12:32:27;99691.84;;;21.08;46.76
81937;BME280;71432;56.558;9.036;2023-12-20T12:34:52;99692.53;;;21.10;46.79
81937;BME280;71432;56.558;9.036;2023-12-20T12:37:18;99695.97;;;21.11;46.94
81937;BME280;71432;56.558;9.036;2023-12-20T12:39:43;99694.50;;;21.08;47.16
81937;BME280;71432;56.558;9.036;2023-12-20T12:42:08;99710.78;;;21.12;47.29
81937;BME280;71432;56.558;9.036;2023-12-20T12:44:34;99729.53;;;21.09;47.10
81937;BME280;71432;56.558;9.036;2023-12-20T12:46:59;99731.53;;;21.07;47.31
81937;BME280;71432;56.558;9.036;2023-12-20T12:49:25;99716.72;;;21.06;47.37
81937;BME280;71432;56.558;9.036;2023-12-20T12:51:51;99709.19;;;21.03;47.55
81937;BME280;71432;56.558;9.036;2023-12-20T12:54:16;99712.44;;;21.05;47.35